sensor_id;sensor_type;location;lat;lon;timestamp;temperature;humidity
73547;SHT30;61807;48.384;-4.386;2023-02-28T00:01:24;6.36;60.04
73547;SHT30;61807;48.384;-4.386;2023-02-28T00:03:49;6.32;60.08
73547;SHT30;61807;48.384;-4.386;2023-02-28T00:06:15;6.30;60.28
73547;SHT30;61807;48.384;-4.386;2023-02-28T00:08:41;6.26;60.29
73547;SHT30;61807;48.384;-4.386;2023-02-28T00:11:12;6.22;60.43
73547;SHT30;61807;48.384;-4.386;2023-02-28T00:13:44;6.18;60.49
73547;SHT30;61807;48.384;-4.386;2023-02-28T00:16:14;6.15;60.65
73547;SHT30;61807;48.384;-4.386;2023-02-28T00:18:40;6.16;60.67
73547;SHT30;61807;48.384;-4.386;2023-02-28T00:21:06;6.16;60.76
73547;SHT30;61807;48.384;-4.386;2023-02-28T00:23:33;6.13;60.76
73547;SHT30;61807;48.384;-4.386;2023-02-28T00:25:58;6.09;60.72
73547;SHT30;61807;48.384;-4.386;2023-02-28T00:28:24;6.11;60.75
73547;SHT30;61807;48.384;-4.386;2023-02-28T00:30:49;6.11;60.89
73547;SHT30;61807;48.384;-4.386;2023-02-28T00:33:15;6.09;60.97
73547;SHT30;61807;48.384;-4.386;2023-02-28T00:35:41;6.06;61.05
73547;SHT30;61807;48.384;-4.386;2023-02-28T00:38:07;6.03;61.13
73547;SHT30;61807;48.384;-4.386;2023-02-28T00:40:32;6.01;61.25
73547;SHT30;61807;48.384;-4.386;2023-02-28T00:42:58;5.92;61.27
73547;SHT30;61807;48.384;-4.386;2023-02-28T00:45:23;5.94;61.33
73547;SHT30;61807;48.384;-4.386;2023-02-28T00:47:49;5.92;61.31
73547;SHT30;61807;48.384;-4.386;2023-02-28T00:50:18;5.90;61.38
73547;SHT30;61807;48.384;-4.386;2023-02-28T00:52:45;5.90;61.38
73547;SHT30;61807;48.384;-4.386;2023-02-28T00:55:10;5.91;61.43
73547;SHT30;61807;48.384;-4.386;2023-02-28T00:57:36;5.91;61.43
73547;SHT30;61807;48.384;-4.386;2023-02-28T01:00:02;5.92;61.41
73547;SHT30;61807;48.384;-4.386;2023-02-28T01:02:29;5.90;61.48
73547;SHT30;61807;48.384;-4.386;2023-02-28T01:04:54;5.85;61.55
73547;SHT30;61807;48.384;-4.386;2023-02-28T01:07:19;5.88;61.65
73547;SHT30;61807;48.384;-4.386;2023-02-28T01:09:45;5.85;61.78
73547;SHT30;61807;48.384;-4.386;2023-02-28T01:12:10;5.85;61.84
73547;SHT30;61807;48.384;-4.386;2023-02-28T01:14:36;5.85;61.94
73547;SHT30;61807;48.384;-4.386;2023-02-28T01:17:02;5.85;61.94
73547;SHT30;61807;48.384;-4.386;2023-02-28T01:19:27;5.82;61.98
73547;SHT30;61807;48.384;-4.386;2023-02-28T01:21:52;5.82;62.10
73547;SHT30;61807;48.384;-4.386;2023-02-28T01:24:18;5.90;62.21
73547;SHT30;61807;48.384;-4.386;2023-02-28T01:26:44;5.92;62.25
73547;SHT30;61807;48.384;-4.386;2023-02-28T01:29:09;5.92;62.30
73547;SHT30;61807;48.384;-4.386;2023-02-28T01:31:35;5.95;62.19
73547;SHT30;61807;48.384;-4.386;2023-02-28T01:34:01;6.01;62.22
73547;SHT30;61807;48.384;-4.386;2023-02-28T01:36:26;6.05;62.14
73547;SHT30;61807;48.384;-4.386;2023-02-28T01:38:52;6.08;62.22
73547;SHT30;61807;48.384;-4.386;2023-02-28T01:41:25;6.12;62.28
73547;SHT30;61807;48.384;-4.386;2023-02-28T01:46:47;6.25;62.13
73547;SHT30;61807;48.384;-4.386;2023-02-28T01:49:15;6.25;62.16
73547;SHT30;61807;48.384;-4.386;2023-02-28T01:51:45;6.29;62.22
73547;SHT30;61807;48.384;-4.386;2023-02-28T01:54:27;6.34;62.37
73547;SHT30;61807;48.384;-4.386;2023-02-28T01:59:38;6.36;62.42
73547;SHT30;61807;48.384;-4.386;2023-02-28T02:02:11;6.39;62.43
73547;SHT30;61807;48.384;-4.386;2023-02-28T02:04:42;6.42;62.57
73547;SHT30;61807;48.384;-4.386;2023-02-28T02:07:10;6.42;62.73
73547;SHT30;61807;48.384;-4.386;2023-02-28T02:09:36;6.44;62.78
73547;SHT30;61807;48.384;-4.386;2023-02-28T02:12:15;6.47;62.89
73547;SHT30;61807;48.384;-4.386;2023-02-28T02:17:39;6.54;62.77
73547;SHT30;61807;48.384;-4.386;2023-02-28T02:25:18;6.61;62.68
73547;SHT30;61807;48.384;-4.386;2023-02-28T02:41:18;6.70;62.50
73547;SHT30;61807;48.384;-4.386;2023-02-28T02:44:06;6.70;62.50
73547;SHT30;61807;48.384;-4.386;2023-02-28T02:46:42;6.74;62.40
73547;SHT30;61807;48.384;-4.386;2023-02-28T02:49:13;6.73;62.31
73547;SHT30;61807;48.384;-4.386;2023-02-28T02:51:41;6.77;62.37
73547;SHT30;61807;48.384;-4.386;2023-02-28T02:54:15;6.77;62.52
73547;SHT30;61807;48.384;-4.386;2023-02-28T02:56:44;6.80;62.53
73547;SHT30;61807;48.384;-4.386;2023-02-28T02:59:14;6.80;62.46
73547;SHT30;61807;48.384;-4.386;2023-02-28T03:01:41;6.81;62.67
73547;SHT30;61807;48.384;-4.386;2023-02-28T03:04:16;6.79;62.89
73547;SHT30;61807;48.384;-4.386;2023-02-28T03:06:43;6.81;62.99
73547;SHT30;61807;48.384;-4.386;2023-02-28T03:09:08;6.81;62.83
73547;SHT30;61807;48.384;-4.386;2023-02-28T03:11:35;6.84;62.66
73547;SHT30;61807;48.384;-4.386;2023-02-28T03:33:08;6.97;63.00
73547;SHT30;61807;48.384;-4.386;2023-02-28T03:35:39;6.94;62.93
73547;SHT30;61807;48.384;-4.386;2023-02-28T03:38:35;6.98;63.22
73547;SHT30;61807;48.384;-4.386;2023-02-28T03:41:15;6.98;63.19
73547;SHT30;61807;48.384;-4.386;2023-02-28T03:43:46;7.01;62.89
73547;SHT30;61807;48.384;-4.386;2023-02-28T03:46:18;7.00;62.89
73547;SHT30;61807;48.384;-4.386;2023-02-28T03:49:02;6.97;62.88
73547;SHT30;61807;48.384;-4.386;2023-02-28T03:51:29;7.01;63.12
73547;SHT30;61807;48.384;-4.386;2023-02-28T03:53:59;6.95;63.24
73547;SHT30;61807;48.384;-4.386;2023-02-28T03:56:33;6.97;63.21
73547;SHT30;61807;48.384;-4.386;2023-02-28T04:01:35;6.97;63.26
73547;SHT30;61807;48.384;-4.386;2023-02-28T04:04:03;7.00;63.23
73547;SHT30;61807;48.384;-4.386;2023-02-28T04:06:31;7.02;63.35
73547;SHT30;61807;48.384;-4.386;2023-02-28T04:08:57;7.02;63.44
73547;SHT30;61807;48.384;-4.386;2023-02-28T04:11:37;7.02;63.54
73547;SHT30;61807;48.384;-4.386;2023-02-28T04:14:04;7.04;63.77
73547;SHT30;61807;48.384;-4.386;2023-02-28T04:16:31;7.02;63.80
73547;SHT30;61807;48.384;-4.386;2023-02-28T04:18:56;7.04;63.85
73547;SHT30;61807;48.384;-4.386;2023-02-28T04:21:39;7.04;63.94
73547;SHT30;61807;48.384;-4.386;2023-02-28T04:24:06;7.05;64.03
73547;SHT30;61807;48.384;-4.386;2023-02-28T04:26:35;7.00;63.91
73547;SHT30;61807;48.384;-4.386;2023-02-28T04:29:02;7.00;63.82
73547;SHT30;61807;48.384;-4.386;2023-02-28T04:31:27;7.00;63.77
73547;SHT30;61807;48.384;-4.386;2023-02-28T04:33:53;7.01;63.59
73547;SHT30;61807;48.384;-4.386;2023-02-28T04:36:18;7.08;63.63
73547;SHT30;61807;48.384;-4.386;2023-02-28T04:38:45;7.09;63.60
73547;SHT30;61807;48.384;-4.386;2023-02-28T04:41:11;7.12;63.65
73547;SHT30;61807;48.384;-4.386;2023-02-28T04:43:37;7.22;63.68
73547;SHT30;61807;48.384;-4.386;2023-02-28T04:46:04;7.26;63.86
73547;SHT30;61807;48.384;-4.386;2023-02-28T04:48:32;7.36;63.89
73547;SHT30;61807;48.384;-4.386;2023-02-28T04:51:03;7.43;63.90
73547;SHT30;61807;48.384;-4.386;2023-02-28T04:53:29;7.48;63.84
73547;SHT30;61807;48.384;-4.386;2023-02-28T04:55:58;7.52;63.83
73547;SHT30;61807;48.384;-4.386;2023-02-28T04:58:24;7.58;63.81
73547;SHT30;61807;48.384;-4.386;2023-02-28T05:00:50;7.60;63.87
73547;SHT30;61807;48.384;-4.386;2023-02-28T05:03:16;7.69;63.96
73547;SHT30;61807;48.384;-4.386;2023-02-28T05:05:41;7.71;64.04
73547;SHT30;61807;48.384;-4.386;2023-02-28T05:08:07;7.74;64.13
73547;SHT30;61807;48.384;-4.386;2023-02-28T05:10:33;7.73;64.27
73547;SHT30;61807;48.384;-4.386;2023-02-28T05:12:58;7.79;64.41
73547;SHT30;61807;48.384;-4.386;2023-02-28T05:15:24;7.89;64.29
73547;SHT30;61807;48.384;-4.386;2023-02-28T05:17:49;7.95;64.07
73547;SHT30;61807;48.384;-4.386;2023-02-28T05:20:15;8.05;64.01
73547;SHT30;61807;48.384;-4.386;2023-02-28T05:22:41;8.10;64.02
73547;SHT30;61807;48.384;-4.386;2023-02-28T05:25:10;8.17;64.07
73547;SHT30;61807;48.384;-4.386;2023-02-28T05:27:37;8.27;64.01
73547;SHT30;61807;48.384;-4.386;2023-02-28T05:30:03;8.35;63.81
73547;SHT30;61807;48.384;-4.386;2023-02-28T05:32:29;8.42;63.75
73547;SHT30;61807;48.384;-4.386;2023-02-28T05:34:55;8.46;63.81
73547;SHT30;61807;48.384;-4.386;2023-02-28T05:37:20;8.49;63.66
73547;SHT30;61807;48.384;-4.386;2023-02-28T05:39:46;8.56;63.79
73547;SHT30;61807;48.384;-4.386;2023-02-28T05:42:11;8.58;63.87
73547;SHT30;61807;48.384;-4.386;2023-02-28T05:44:36;8.65;63.81
73547;SHT30;61807;48.384;-4.386;2023-02-28T05:47:02;8.68;63.80
73547;SHT30;61807;48.384;-4.386;2023-02-28T05:49:27;8.68;63.70
73547;SHT30;61807;48.384;-4.386;2023-02-28T05:51:53;8.72;63.73
73547;SHT30;61807;48.384;-4.386;2023-02-28T05:54:18;8.73;63.61
73547;SHT30;61807;48.384;-4.386;2023-02-28T05:56:43;8.72;63.51
73547;SHT30;61807;48.384;-4.386;2023-02-28T05:59:13;8.76;63.66
73547;SHT30;61807;48.384;-4.386;2023-02-28T06:01:40;8.76;63.64
73547;SHT30;61807;48.384;-4.386;2023-02-28T06:04:08;8.81;63.59
73547;SHT30;61807;48.384;-4.386;2023-02-28T06:06:35;8.84;63.28
73547;SHT30;61807;48.384;-4.386;2023-02-28T06:09:01;8.86;63.17
73547;SHT30;61807;48.384;-4.386;2023-02-28T06:11:27;8.84;63.42
73547;SHT30;61807;48.384;-4.386;2023-02-28T06:13:54;8.84;63.31
73547;SHT30;61807;48.384;-4.386;2023-02-28T06:16:20;8.81;63.12
73547;SHT30;61807;48.384;-4.386;2023-02-28T06:18:46;8.83;63.26
73547;SHT30;61807;48.384;-4.386;2023-02-28T06:21:12;8.81;63.31
73547;SHT30;61807;48.384;-4.386;2023-02-28T06:23:37;8.83;63.13
73547;SHT30;61807;48.384;-4.386;2023-02-28T06:26:03;8.80;63.16
73547;SHT30;61807;48.384;-4.386;2023-02-28T06:28:28;8.77;63.16
73547;SHT30;61807;48.384;-4.386;2023-02-28T06:30:54;8.66;63.27
73547;SHT30;61807;48.384;-4.386;2023-02-28T06:33:19;8.62;63.33
73547;SHT30;61807;48.384;-4.386;2023-02-28T06:35:47;8.55;63.42
73547;SHT30;61807;48.384;-4.386;2023-02-28T06:38:12;8.46;63.50
73547;SHT30;61807;48.384;-4.386;2023-02-28T06:40:38;8.39;63.60
73547;SHT30;61807;48.384;-4.386;2023-02-28T06:43:03;8.32;63.63
73547;SHT30;61807;48.384;-4.386;2023-02-28T06:45:29;8.29;63.68
73547;SHT30;61807;48.384;-4.386;2023-02-28T06:47:54;8.22;63.84
73547;SHT30;61807;48.384;-4.386;2023-02-28T06:50:20;8.14;63.92
73547;SHT30;61807;48.384;-4.386;2023-02-28T06:52:46;8.12;64.10
73547;SHT30;61807;48.384;-4.386;2023-02-28T06:55:11;8.10;64.09
73547;SHT30;61807;48.384;-4.386;2023-02-28T06:57:37;8.08;64.05
73547;SHT30;61807;48.384;-4.386;2023-02-28T07:00:06;8.05;64.06
73547;SHT30;61807;48.384;-4.386;2023-02-28T07:02:33;8.02;64.07
73547;SHT30;61807;48.384;-4.386;2023-02-28T07:04:58;8.05;64.11
73547;SHT30;61807;48.384;-4.386;2023-02-28T07:07:23;8.02;64.19
73547;SHT30;61807;48.384;-4.386;2023-02-28T07:09:49;8.00;64.31
73547;SHT30;61807;48.384;-4.386;2023-02-28T07:12:14;7.98;64.34
73547;SHT30;61807;48.384;-4.386;2023-02-28T07:14:40;7.98;64.40
73547;SHT30;61807;48.384;-4.386;2023-02-28T07:17:09;7.98;64.40
73547;SHT30;61807;48.384;-4.386;2023-02-28T07:19:37;7.97;64.31
73547;SHT30;61807;48.384;-4.386;2023-02-28T07:22:03;7.95;64.26
73547;SHT30;61807;48.384;-4.386;2023-02-28T07:24:28;7.93;64.26
73547;SHT30;61807;48.384;-4.386;2023-02-28T07:26:54;7.94;64.31
73547;SHT30;61807;48.384;-4.386;2023-02-28T07:29:20;7.94;64.25
73547;SHT30;61807;48.384;-4.386;2023-02-28T07:31:46;7.95;64.09
73547;SHT30;61807;48.384;-4.386;2023-02-28T07:34:12;7.91;64.19
73547;SHT30;61807;48.384;-4.386;2023-02-28T07:36:37;7.93;64.16
73547;SHT30;61807;48.384;-4.386;2023-02-28T07:39:03;7.97;63.89
73547;SHT30;61807;48.384;-4.386;2023-02-28T07:41:29;8.01;63.90
73547;SHT30;61807;48.384;-4.386;2023-02-28T07:43:58;8.08;63.96
73547;SHT30;61807;48.384;-4.386;2023-02-28T07:46:25;8.12;64.09
73547;SHT30;61807;48.384;-4.386;2023-02-28T07:48:51;8.18;64.05
73547;SHT30;61807;48.384;-4.386;2023-02-28T07:51:16;8.22;64.11
73547;SHT30;61807;48.384;-4.386;2023-02-28T07:53:42;8.22;64.18
73547;SHT30;61807;48.384;-4.386;2023-02-28T07:56:07;8.24;64.09
73547;SHT30;61807;48.384;-4.386;2023-02-28T07:58:33;8.22;63.74
73547;SHT30;61807;48.384;-4.386;2023-02-28T08:01:08;8.25;64.04
73547;SHT30;61807;48.384;-4.386;2023-02-28T08:03:35;8.27;64.20
73547;SHT30;61807;48.384;-4.386;2023-02-28T08:06:01;8.29;64.30
73547;SHT30;61807;48.384;-4.386;2023-02-28T08:08:27;8.29;64.40
73547;SHT30;61807;48.384;-4.386;2023-02-28T08:11:01;8.31;64.42
73547;SHT30;61807;48.384;-4.386;2023-02-28T08:13:28;8.32;64.56
73547;SHT30;61807;48.384;-4.386;2023-02-28T08:15:55;8.29;64.59
73547;SHT30;61807;48.384;-4.386;2023-02-28T08:18:21;8.31;64.59
73547;SHT30;61807;48.384;-4.386;2023-02-28T08:20:47;8.37;64.67
73547;SHT30;61807;48.384;-4.386;2023-02-28T08:23:12;8.41;64.65
73547;SHT30;61807;48.384;-4.386;2023-02-28T08:25:38;8.45;64.50
73547;SHT30;61807;48.384;-4.386;2023-02-28T08:28:03;8.44;64.23
73547;SHT30;61807;48.384;-4.386;2023-02-28T08:30:29;8.53;64.03
73547;SHT30;61807;48.384;-4.386;2023-02-28T08:32:54;8.66;63.89
73547;SHT30;61807;48.384;-4.386;2023-02-28T08:35:21;8.75;63.58
73547;SHT30;61807;48.384;-4.386;2023-02-28T08:37:49;8.84;63.20
73547;SHT30;61807;48.384;-4.386;2023-02-28T08:40:15;8.93;62.98
73547;SHT30;61807;48.384;-4.386;2023-02-28T08:42:46;9.01;62.65
73547;SHT30;61807;48.384;-4.386;2023-02-28T08:45:13;9.13;62.41
73547;SHT30;61807;48.384;-4.386;2023-02-28T08:47:38;9.20;62.28
73547;SHT30;61807;48.384;-4.386;2023-02-28T08:50:04;9.26;61.74
73547;SHT30;61807;48.384;-4.386;2023-02-28T08:52:30;9.31;61.63
73547;SHT30;61807;48.384;-4.386;2023-02-28T08:54:55;9.35;61.53
73547;SHT30;61807;48.384;-4.386;2023-02-28T08:57:21;9.35;61.74
73547;SHT30;61807;48.384;-4.386;2023-02-28T08:59:46;9.39;61.65
73547;SHT30;61807;48.384;-4.386;2023-02-28T09:02:14;9.44;61.59
73547;SHT30;61807;48.384;-4.386;2023-02-28T09:04:41;9.42;61.37
73547;SHT30;61807;48.384;-4.386;2023-02-28T09:07:07;9.42;61.21
73547;SHT30;61807;48.384;-4.386;2023-02-28T09:09:32;9.34;60.94
73547;SHT30;61807;48.384;-4.386;2023-02-28T09:11:58;9.21;60.83
73547;SHT30;61807;48.384;-4.386;2023-02-28T09:14:23;9.08;60.73
73547;SHT30;61807;48.384;-4.386;2023-02-28T09:16:49;8.94;60.43
73547;SHT30;61807;48.384;-4.386;2023-02-28T09:19:14;8.83;60.67
73547;SHT30;61807;48.384;-4.386;2023-02-28T09:21:40;8.73;60.97
73547;SHT30;61807;48.384;-4.386;2023-02-28T09:24:06;8.72;61.22
73547;SHT30;61807;48.384;-4.386;2023-02-28T09:26:31;8.73;61.34
73547;SHT30;61807;48.384;-4.386;2023-02-28T09:28:57;8.69;61.44
73547;SHT30;61807;48.384;-4.386;2023-02-28T09:31:26;8.70;61.11
73547;SHT30;61807;48.384;-4.386;2023-02-28T09:33:53;8.73;60.92
73547;SHT30;61807;48.384;-4.386;2023-02-28T09:36:20;8.86;61.18
73547;SHT30;61807;48.384;-4.386;2023-02-28T09:38:45;9.20;61.27
73547;SHT30;61807;48.384;-4.386;2023-02-28T09:41:44;9.58;60.62
73547;SHT30;61807;48.384;-4.386;2023-02-28T09:44:36;9.75;59.06
73547;SHT30;61807;48.384;-4.386;2023-02-28T09:47:23;9.75;59.67
73547;SHT30;61807;48.384;-4.386;2023-02-28T09:49:52;9.72;59.62
73547;SHT30;61807;48.384;-4.386;2023-02-28T09:52:27;9.79;59.02
73547;SHT30;61807;48.384;-4.386;2023-02-28T09:54:53;9.99;59.45
73547;SHT30;61807;48.384;-4.386;2023-02-28T09:57:32;10.36;59.03
73547;SHT30;61807;48.384;-4.386;2023-02-28T10:00:15;10.48;58.53
73547;SHT30;61807;48.384;-4.386;2023-02-28T10:05:23;10.34;57.44
73547;SHT30;61807;48.384;-4.386;2023-02-28T10:08:03;10.17;57.70
73547;SHT30;61807;48.384;-4.386;2023-02-28T10:10:40;10.07;58.10
73547;SHT30;61807;48.384;-4.386;2023-02-28T10:13:14;10.00;58.07
73547;SHT30;61807;48.384;-4.386;2023-02-28T10:15:42;9.92;57.45
73547;SHT30;61807;48.384;-4.386;2023-02-28T10:18:14;9.86;57.73
73547;SHT30;61807;48.384;-4.386;2023-02-28T10:20:42;9.78;57.34
73547;SHT30;61807;48.384;-4.386;2023-02-28T10:23:28;9.68;57.40
73547;SHT30;61807;48.384;-4.386;2023-02-28T10:26:03;9.66;57.51
73547;SHT30;61807;48.384;-4.386;2023-02-28T10:28:30;9.68;57.78
73547;SHT30;61807;48.384;-4.386;2023-02-28T10:30:56;9.63;57.88
73547;SHT30;61807;48.384;-4.386;2023-02-28T10:35:52;9.51;57.70
73547;SHT30;61807;48.384;-4.386;2023-02-28T10:38:21;9.41;57.27
73547;SHT30;61807;48.384;-4.386;2023-02-28T10:40:47;9.31;57.50
73547;SHT30;61807;48.384;-4.386;2023-02-28T10:45:39;9.18;57.82
73547;SHT30;61807;48.384;-4.386;2023-02-28T10:59:30;9.07;58.26
73547;SHT30;61807;48.384;-4.386;2023-02-28T11:01:45;9.07;58.54
73547;SHT30;61807;48.384;-4.386;2023-02-28T11:06:59;9.07;58.78
73547;SHT30;61807;48.384;-4.386;2023-02-28T11:09:38;9.10;58.97
73547;SHT30;61807;48.384;-4.386;2023-02-28T11:12:08;9.10;59.03
73547;SHT30;61807;48.384;-4.386;2023-02-28T11:14:55;9.08;59.18
73547;SHT30;61807;48.384;-4.386;2023-02-28T11:17:30;9.07;59.35
73547;SHT30;61807;48.384;-4.386;2023-02-28T11:19:58;9.06;59.67
73547;SHT30;61807;48.384;-4.386;2023-02-28T11:22:31;9.07;60.01
73547;SHT30;61807;48.384;-4.386;2023-02-28T11:25:02;9.07;59.80
73547;SHT30;61807;48.384;-4.386;2023-02-28T11:30:00;9.01;60.19
73547;SHT30;61807;48.384;-4.386;2023-02-28T11:32:27;9.01;60.10
73547;SHT30;61807;48.384;-4.386;2023-02-28T11:37:35;9.32;60.23
73547;SHT30;61807;48.384;-4.386;2023-02-28T11:40:02;9.68;60.30
73547;SHT30;61807;48.384;-4.386;2023-02-28T11:53:02;10.44;58.66
73547;SHT30;61807;48.384;-4.386;2023-02-28T11:55:35;10.50;58.83
73547;SHT30;61807;48.384;-4.386;2023-02-28T12:06:52;10.99;58.37
73547;SHT30;61807;48.384;-4.386;2023-02-28T12:09:44;11.06;58.12
73547;SHT30;61807;48.384;-4.386;2023-02-28T12:15:04;11.19;57.67
73547;SHT30;61807;48.384;-4.386;2023-02-28T12:18:02;11.08;58.25
73547;SHT30;61807;48.384;-4.386;2023-02-28T12:24:06;10.63;59.88
73547;SHT30;61807;48.384;-4.386;2023-02-28T12:29:04;10.57;60.67
73547;SHT30;61807;48.384;-4.386;2023-02-28T12:31:40;10.79;60.78
73547;SHT30;61807;48.384;-4.386;2023-02-28T12:34:11;10.95;60.66
73547;SHT30;61807;48.384;-4.386;2023-02-28T12:36:37;11.06;60.26
73547;SHT30;61807;48.384;-4.386;2023-02-28T12:39:20;11.08;59.96
73547;SHT30;61807;48.384;-4.386;2023-02-28T12:41:53;11.19;60.23
73547;SHT30;61807;48.384;-4.386;2023-02-28T12:44:35;11.56;59.93
73547;SHT30;61807;48.384;-4.386;2023-02-28T12:47:04;12.29;59.02
73547;SHT30;61807;48.384;-4.386;2023-02-28T12:52:00;12.83;57.53
73547;SHT30;61807;48.384;-4.386;2023-02-28T12:54:44;12.62;56.75
73547;SHT30;61807;48.384;-4.386;2023-02-28T12:57:33;12.14;57.25
73547;SHT30;61807;48.384;-4.386;2023-02-28T13:00:08;11.83;57.55
73547;SHT30;61807;48.384;-4.386;2023-02-28T13:19:24;13.85;57.63
73547;SHT30;61807;48.384;-4.386;2023-02-28T13:21:51;14.09;56.98
73547;SHT30;61807;48.384;-4.386;2023-02-28T13:24:44;14.05;56.67
73547;SHT30;61807;48.384;-4.386;2023-02-28T13:27:21;13.72;55.80
73547;SHT30;61807;48.384;-4.386;2023-02-28T13:29:51;13.22;56.05
73547;SHT30;61807;48.384;-4.386;2023-02-28T13:39:54;11.98;57.97
73547;SHT30;61807;48.384;-4.386;2023-02-28T13:56:18;11.44;58.92
73547;SHT30;61807;48.384;-4.386;2023-02-28T13:58:44;11.36;59.23
73547;SHT30;61807;48.384;-4.386;2023-02-28T14:06:58;11.39;60.15
73547;SHT30;61807;48.384;-4.386;2023-02-28T14:09:29;11.59;59.81
73547;SHT30;61807;48.384;-4.386;2023-02-28T14:11:56;11.77;59.02
73547;SHT30;61807;48.384;-4.386;2023-02-28T14:17:14;11.47;58.30
73547;SHT30;61807;48.384;-4.386;2023-02-28T14:19:44;11.23;58.63
73547;SHT30;61807;48.384;-4.386;2023-02-28T14:25:25;10.92;59.42
73547;SHT30;61807;48.384;-4.386;2023-02-28T14:31:06;10.94;60.11
73547;SHT30;61807;48.384;-4.386;2023-02-28T14:36:24;11.06;60.26
73547;SHT30;61807;48.384;-4.386;2023-02-28T14:38:56;11.12;60.26
73547;SHT30;61807;48.384;-4.386;2023-02-28T14:41:35;11.12;59.98
73547;SHT30;61807;48.384;-4.386;2023-02-28T14:44:13;11.09;60.06
73547;SHT30;61807;48.384;-4.386;2023-02-28T14:46:40;11.04;60.10
73547;SHT30;61807;48.384;-4.386;2023-02-28T14:49:15;10.95;60.01
73547;SHT30;61807;48.384;-4.386;2023-02-28T14:51:42;10.79;60.51
73547;SHT30;61807;48.384;-4.386;2023-02-28T14:54:12;10.57;61.51
73547;SHT30;61807;48.384;-4.386;2023-02-28T14:56:39;10.36;62.40
73547;SHT30;61807;48.384;-4.386;2023-02-28T14:59:17;10.24;62.93
73547;SHT30;61807;48.384;-4.386;2023-02-28T15:01:47;10.18;63.14
73547;SHT30;61807;48.384;-4.386;2023-02-28T15:04:22;10.18;63.46
73547;SHT30;61807;48.384;-4.386;2023-02-28T15:07:10;10.16;63.80
73547;SHT30;61807;48.384;-4.386;2023-02-28T15:09:36;10.18;63.79
73547;SHT30;61807;48.384;-4.386;2023-02-28T15:12:02;10.18;63.84
73547;SHT30;61807;48.384;-4.386;2023-02-28T15:14:27;10.24;63.96
73547;SHT30;61807;48.384;-4.386;2023-02-28T15:17:01;10.36;64.31
73547;SHT30;61807;48.384;-4.386;2023-02-28T15:19:34;10.55;64.26
73547;SHT30;61807;48.384;-4.386;2023-02-28T15:22:06;10.74;64.12
73547;SHT30;61807;48.384;-4.386;2023-02-28T15:24:42;10.79;63.65
73547;SHT30;61807;48.384;-4.386;2023-02-28T15:27:35;10.81;63.74
73547;SHT30;61807;48.384;-4.386;2023-02-28T15:30:08;10.72;63.40
73547;SHT30;61807;48.384;-4.386;2023-02-28T15:32:39;10.61;62.83
73547;SHT30;61807;48.384;-4.386;2023-02-28T15:40:40;10.10;62.72
73547;SHT30;61807;48.384;-4.386;2023-02-28T15:43:15;10.06;62.84
73547;SHT30;61807;48.384;-4.386;2023-02-28T15:46:27;10.05;63.03
73547;SHT30;61807;48.384;-4.386;2023-02-28T15:48:45;10.02;63.23
73547;SHT30;61807;48.384;-4.386;2023-02-28T15:51:22;10.00;63.22
73547;SHT30;61807;48.384;-4.386;2023-02-28T15:53:56;10.02;63.00
73547;SHT30;61807;48.384;-4.386;2023-02-28T15:56:47;10.03;63.07
73547;SHT30;61807;48.384;-4.386;2023-02-28T15:59:20;10.14;62.71
73547;SHT30;61807;48.384;-4.386;2023-02-28T16:02:02;10.21;62.64
73547;SHT30;61807;48.384;-4.386;2023-02-28T16:04:27;10.26;62.54
73547;SHT30;61807;48.384;-4.386;2023-02-28T16:09:25;10.27;62.55
73547;SHT30;61807;48.384;-4.386;2023-02-28T16:11:54;10.26;62.98
73547;SHT30;61807;48.384;-4.386;2023-02-28T16:14:24;10.26;63.33
73547;SHT30;61807;48.384;-4.386;2023-02-28T16:16:54;10.27;63.40
73547;SHT30;61807;48.384;-4.386;2023-02-28T16:19:20;10.32;63.74
73547;SHT30;61807;48.384;-4.386;2023-02-28T16:21:46;10.38;63.69
73547;SHT30;61807;48.384;-4.386;2023-02-28T16:24:12;10.40;63.85
73547;SHT30;61807;48.384;-4.386;2023-02-28T16:26:45;10.48;64.02
73547;SHT30;61807;48.384;-4.386;2023-02-28T16:29:17;10.48;63.87
73547;SHT30;61807;48.384;-4.386;2023-02-28T16:31:44;10.53;64.03
73547;SHT30;61807;48.384;-4.386;2023-02-28T16:34:10;10.54;63.92
73547;SHT30;61807;48.384;-4.386;2023-02-28T16:36:35;10.61;63.90
73547;SHT30;61807;48.384;-4.386;2023-02-28T16:39:00;10.65;63.95
73547;SHT30;61807;48.384;-4.386;2023-02-28T16:41:28;10.67;63.59
73547;SHT30;61807;48.384;-4.386;2023-02-28T16:43:55;10.65;63.42
73547;SHT30;61807;48.384;-4.386;2023-02-28T16:46:32;10.69;63.41
73547;SHT30;61807;48.384;-4.386;2023-02-28T16:48:58;10.72;63.22
73547;SHT30;61807;48.384;-4.386;2023-02-28T16:51:23;10.72;63.10
73547;SHT30;61807;48.384;-4.386;2023-02-28T16:53:49;10.69;62.79
73547;SHT30;61807;48.384;-4.386;2023-02-28T16:56:17;10.65;62.81
73547;SHT30;61807;48.384;-4.386;2023-02-28T16:58:43;10.54;62.63
73547;SHT30;61807;48.384;-4.386;2023-02-28T17:01:09;10.48;62.56
73547;SHT30;61807;48.384;-4.386;2023-02-28T17:03:34;10.44;62.74
73547;SHT30;61807;48.384;-4.386;2023-02-28T17:06:01;10.40;62.82
73547;SHT30;61807;48.384;-4.386;2023-02-28T17:08:27;10.38;62.90
73547;SHT30;61807;48.384;-4.386;2023-02-28T17:10:54;10.37;62.89
73547;SHT30;61807;48.384;-4.386;2023-02-28T17:13:20;10.34;62.86
73547;SHT30;61807;48.384;-4.386;2023-02-28T17:15:45;10.34;62.94
73547;SHT30;61807;48.384;-4.386;2023-02-28T17:18:16;10.36;62.77
73547;SHT30;61807;48.384;-4.386;2023-02-28T17:20:44;10.41;62.69
73547;SHT30;61807;48.384;-4.386;2023-02-28T17:23:10;10.41;62.64
73547;SHT30;61807;48.384;-4.386;2023-02-28T17:25:35;10.37;62.56
73547;SHT30;61807;48.384;-4.386;2023-02-28T17:28:01;10.33;62.41
73547;SHT30;61807;48.384;-4.386;2023-02-28T17:30:27;10.29;62.57
73547;SHT30;61807;48.384;-4.386;2023-02-28T17:32:54;10.32;62.68
73547;SHT30;61807;48.384;-4.386;2023-02-28T17:35:20;10.33;62.70
73547;SHT30;61807;48.384;-4.386;2023-02-28T17:37:45;10.34;62.57
73547;SHT30;61807;48.384;-4.386;2023-02-28T17:40:19;10.41;62.69
73547;SHT30;61807;48.384;-4.386;2023-02-28T17:42:45;10.38;62.48
73547;SHT30;61807;48.384;-4.386;2023-02-28T17:45:11;10.37;62.64
73547;SHT30;61807;48.384;-4.386;2023-02-28T17:47:37;10.34;62.65
73547;SHT30;61807;48.384;-4.386;2023-02-28T17:50:02;10.40;62.77
73547;SHT30;61807;48.384;-4.386;2023-02-28T17:52:28;10.46;62.69
73547;SHT30;61807;48.384;-4.386;2023-02-28T17:54:54;10.43;62.59
73547;SHT30;61807;48.384;-4.386;2023-02-28T17:57:20;10.38;62.79
73547;SHT30;61807;48.384;-4.386;2023-02-28T17:59:46;10.38;62.81
73547;SHT30;61807;48.384;-4.386;2023-02-28T18:02:12;10.36;62.76
73547;SHT30;61807;48.384;-4.386;2023-02-28T18:04:38;10.38;62.81
73547;SHT30;61807;48.384;-4.386;2023-02-28T18:07:05;10.38;62.87
73547;SHT30;61807;48.384;-4.386;2023-02-28T18:09:31;10.41;62.74
73547;SHT30;61807;48.384;-4.386;2023-02-28T18:11:56;10.40;62.71
73547;SHT30;61807;48.384;-4.386;2023-02-28T18:14:23;10.36;62.40
73547;SHT30;61807;48.384;-4.386;2023-02-28T18:16:51;10.29;62.60
73547;SHT30;61807;48.384;-4.386;2023-02-28T18:19:17;10.32;62.60
73547;SHT30;61807;48.384;-4.386;2023-02-28T18:21:48;10.30;62.56
73547;SHT30;61807;48.384;-4.386;2023-02-28T18:24:14;10.33;62.54
73547;SHT30;61807;48.384;-4.386;2023-02-28T18:26:41;10.41;62.43